Time;durP1;ratioP1;P1;durP2;ratioP2;P2;SDS_P1;SDS_P2;PMS_P1;PMS_P2;Temp;Humidity;BMP_temperature;BMP_pressure;BME280_temperature;BME280_humidity;BME280_pressure;Samples;Min_cycle;Max_cycle;Signal;HPM_P1;HPM_P2
2023/11/12 00:00:22;;;;;;;0.20;0.10;;;6.80;99.90;;;;;;4160561;28;20029;-61
2023/11/12 00:02:23;;;;;;;0.33;0.03;;;6.80;99.90;;;;;;4161420;28;20049;-60
2023/11/12 00:04:25;;;;;;;0.20;0.10;;;6.70;99.90;;;;;;4159887;28;20048;-59
2023/11/12 00:06:26;;;;;;;0.20;0.20;;;6.70;99.90;;;;;;4161857;28;20060;-61
2023/11/12 00:08:27;;;;;;;0.10;0.10;;;6.70;99.90;;;;;;4159791;28;20075;-59
2023/11/12 00:10:28;;;;;;;0.50;0.00;;;6.70;99.90;;;;;;4161572;28;20029;-61
2023/11/12 00:12:29;;;;;;;0.10;0.00;;;6.70;99.90;;;;;;4160383;28;20095;-62
2023/11/12 00:14:31;;;;;;;0.33;0.10;;;6.60;99.90;;;;;;4161542;28;20091;-63
2023/11/12 00:16:32;;;;;;;0.97;0.17;;;6.60;99.90;;;;;;4160278;28;20541;-61
2023/11/12 00:18:35;;;;;;;0.17;0.00;;;6.60;99.90;;;;;;4161268;28;20045;-62
2023/11/12 00:20:36;;;;;;;0.10;0.00;;;6.60;99.90;;;;;;4159508;28;20033;-60
2023/11/12 00:22:37;;;;;;;0.10;0.00;;;6.60;99.90;;;;;;4160839;28;20030;-61
2023/11/12 00:24:39;;;;;;;0.30;0.10;;;6.50;99.90;;;;;;4160505;28;20126;-61
2023/11/12 00:26:40;;;;;;;0.00;0.00;;;6.50;99.90;;;;;;4160366;28;20575;-58
2023/11/12 00:28:41;;;;;;;0.20;0.00;;;6.50;99.90;;;;;;4160308;28;20037;-62
2023/11/12 00:30:42;;;;;;;0.10;0.00;;;6.50;99.90;;;;;;4159826;28;20059;-60
2023/11/12 00:32:43;;;;;;;0.27;0.00;;;6.40;99.90;;;;;;4161264;28;20486;-62
2023/11/12 00:34:44;;;;;;;0.17;0.10;;;6.40;99.90;;;;;;4160302;28;20099;-62
2023/11/12 00:36:46;;;;;;;0.07;0.00;;;6.40;99.90;;;;;;4161527;28;20123;-61
2023/11/12 00:38:48;;;;;;;0.00;0.00;;;6.40;99.90;;;;;;4159955;28;20042;-61
2023/11/12 00:40:49;;;;;;;0.00;0.00;;;6.40;99.90;;;;;;4161198;28;20030;-61
2023/11/12 00:42:51;;;;;;;0.93;0.10;;;6.40;99.90;;;;;;4159862;28;20033;-60
2023/11/12 00:44:52;;;;;;;0.20;0.10;;;6.30;99.90;;;;;;4161378;28;20425;-60
2023/11/12 00:46:53;;;;;;;1.10;0.10;;;6.30;99.90;;;;;;4159996;28;20135;-61
2023/11/12 00:48:56;;;;;;;1.70;0.23;;;6.30;99.90;;;;;;4160947;28;20033;-61
2023/11/12 00:50:57;;;;;;;1.03;0.43;;;6.30;99.90;;;;;;4160112;28;20457;-61
2023/11/12 00:52:58;;;;;;;0.60;0.30;;;6.30;99.90;;;;;;4160705;28;20430;-62
2023/11/12 00:54:59;;;;;;;0.27;0.10;;;6.30;99.90;;;;;;4161554;28;20037;-61
2023/11/12 00:57:00;;;;;;;0.10;0.10;;;6.30;99.90;;;;;;4163616;28;20088;-58
2023/11/12 00:59:01;;;;;;;0.10;0.00;;;6.30;99.90;;;;;;4164417;28;20056;-62
2023/11/12 01:01:04;;;;;;;0.10;0.10;;;6.30;99.90;;;;;;4162784;28;20033;-61
2023/11/12 01:03:06;;;;;;;0.23;0.00;;;6.30;99.90;;;;;;4162970;28;20095;-59
2023/11/12 01:05:08;;;;;;;0.87;0.00;;;6.30;99.90;;;;;;4163126;28;20041;-62
2023/11/12 01:07:09;;;;;;;0.10;0.00;;;6.30;99.90;;;;;;4163890;28;20033;-61
2023/11/12 01:09:10;;;;;;;0.10;0.00;;;6.30;99.90;;;;;;4163551;28;20107;-58
2023/11/12 01:11:11;;;;;;;0.13;0.00;;;6.30;99.90;;;;;;4164112;28;20556;-62
2023/11/12 01:13:12;;;;;;;0.00;0.00;;;6.30;99.90;;;;;;4162693;28;20037;-61
2023/11/12 01:15:17;;;;;;;0.00;0.00;;;6.30;99.90;;;;;;4164258;28;20075;-61
2023/11/12 01:17:18;;;;;;;0.10;0.00;;;6.30;99.90;;;;;;4162281;28;20045;-58
2023/11/12 01:19:20;;;;;;;0.10;0.00;;;6.20;99.90;;;;;;4164030;28;20072;-59
2023/11/12 01:21:21;;;;;;;0.00;0.00;;;6.30;99.90;;;;;;4162946;28;20496;-62
2023/11/12 01:23:23;;;;;;;0.00;0.00;;;6.20;99.90;;;;;;4163823;28;20087;-62
2023/11/12 01:25:25;;;;;;;0.50;0.10;;;6.20;99.90;;;;;;4163427;28;20033;-62
2023/11/12 01:27:26;;;;;;;0.10;0.00;;;6.20;99.90;;;;;;4163019;28;20466;-61
2023/11/12 01:29:27;;;;;;;0.00;0.00;;;6.30;99.90;;;;;;4164205;28;20441;-60
2023/11/12 01:31:28;;;;;;;0.23;0.00;;;6.20;99.90;;;;;;4162790;28;20034;-64
2023/11/12 01:33:29;;;;;;;0.00;0.00;;;6.20;99.90;;;;;;4163227;28;20087;-61
2023/11/12 01:35:31;;;;;;;0.10;0.00;;;6.20;99.90;;;;;;4163120;28;20033;-61
2023/11/12 01:37:32;;;;;;;0.00;0.00;;;6.20;99.90;;;;;;4163377;28;20037;-62
2023/11/12 01:39:33;;;;;;;0.00;0.00;;;6.20;99.90;;;;;;4163531;28;20529;-61
2023/11/12 01:41:34;;;;;;;0.00;0.00;;;6.20;99.90;;;;;;4163930;28;20025;-62
2023/11/12 01:43:36;;;;;;;0.10;0.00;;;6.20;99.90;;;;;;4161911;28;20057;-61
2023/11/12 01:45:37;;;;;;;0.00;0.00;;;6.20;99.90;;;;;;4163934;28;20033;-61
2023/11/12 01:47:42;;;;;;;0.20;0.00;;;6.20;99.90;;;;;;4162740;28;20084;-62
2023/11/12 01:49:45;;;;;;;0.00;0.00;;;6.20;99.90;;;;;;4163465;28;20021;-62
2023/11/12 01:51:46;;;;;;;0.00;0.00;;;6.20;99.90;;;;;;4162236;28;20029;-61
2023/11/12 01:53:49;;;;;;;0.00;0.00;;;6.20;99.90;;;;;;4163545;28;20033;-61
2023/11/12 01:55:50;;;;;;;0.00;0.00;;;6.20;99.90;;;;;;4162799;28;20097;-61
2023/11/12 01:57:52;;;;;;;1.90;0.00;;;6.20;99.90;;;;;;4164062;28;20422;-61
2023/11/12 01:59:54;;;;;;;0.10;0.00;;;6.20;99.90;;;;;;4163253;28;20045;-60
2023/11/12 02:01:55;;;;;;;0.10;0.00;;;6.20;99.90;;;;;;4162759;28;20033;-62
2023/11/12 02:03:58;;;;;;;0.00;0.00;;;6.20;99.90;;;;;;4162996;28;20052;-60
2023/11/12 02:05:59;;;;;;;0.03;0.00;;;6.20;99.90;;;;;;4162146;28;20026;-60
2023/11/12 02:08:03;;;;;;;0.10;0.00;;;6.20;99.90;;;;;;4162723;28;20099;-61
2023/11/12 02:10:09;;;;;;;0.00;0.00;;;6.20;99.90;;;;;;4162367;28;20103;-60
2023/11/12 02:12:13;;;;;;;0.00;0.00;;;6.20;99.90;;;;;;4162059;28;20434;-63
2023/11/12 02:14:14;;;;;;;0.00;0.00;;;6.10;99.90;;;;;;4160981;28;20067;-60
2023/11/12 02:16:15;;;;;;;0.10;0.00;;;6.20;99.90;;;;;;4163379;28;20068;-60
2023/11/12 02:18:17;;;;;;;0.10;0.10;;;6.20;99.90;;;;;;4161252;28;20049;-62
2023/11/12 02:20:18;;;;;;;0.10;0.00;;;6.20;99.90;;;;;;4163095;28;20405;-60
2023/11/12 02:22:19;;;;;;;0.90;0.00;;;6.20;99.90;;;;;;4161667;28;20037;-59
2023/11/12 02:24:23;;;;;;;0.00;0.00;;;6.20;99.90;;;;;;4162664;28;20123;-62
2023/11/12 02:26:24;;;;;;;0.43;0.00;;;6.10;99.90;;;;;;4162019;28;20436;-59
2023/11/12 02:28:27;;;;;;;0.00;0.00;;;6.20;99.90;;;;;;4162726;28;20099;-62
2023/11/12 02:30:28;;;;;;;0.10;0.00;;;6.20;99.90;;;;;;4162047;28;20064;-59
2023/11/12 02:32:34;;;;;;;0.07;0.00;;;6.20;99.90;;;;;;4162837;28;20091;-61
2023/11/12 02:34:35;;;;;;;0.00;0.00;;;6.20;99.90;;;;;;4159947;28;20064;-59
2023/11/12 02:36:37;;;;;;;0.00;0.00;;;6.20;99.90;;;;;;4162279;28;20506;-62
2023/11/12 02:38:39;;;;;;;0.10;0.00;;;6.20;99.90;;;;;;4162536;28;20441;-59
2023/11/12 02:40:40;;;;;;;0.00;0.00;;;6.20;99.90;;;;;;4162050;28;20092;-63
2023/11/12 02:42:41;;;;;;;0.00;0.00;;;6.20;99.90;;;;;;4162686;28;20033;-59
2023/11/12 02:44:43;;;;;;;0.93;0.00;;;6.20;99.90;;;;;;4161944;28;20117;-60
2023/11/12 02:46:44;;;;;;;0.00;0.00;;;6.20;99.90;;;;;;4161841;28;20041;-59
2023/11/12 02:49:14;;;;;;;0.00;0.00;;;6.20;99.90;;;;;;4161508;28;20037;-59
2023/11/12 02:51:15;;;;;;;0.13;0.00;;;6.20;99.90;;;;;;4152371;28;20042;-57
2023/11/12 02:53:17;;;;;;;0.00;0.00;;;6.20;99.90;;;;;;4161607;28;20452;-60
2023/11/12 02:55:18;;;;;;;5.23;0.73;;;6.20;99.90;;;;;;4162747;28;20429;-62
2023/11/12 02:57:22;;;;;;;0.00;0.00;;;6.30;99.90;;;;;;4161176;28;20030;-59
2023/11/12 02:59:23;;;;;;;0.10;0.00;;;6.20;99.90;;;;;;4163003;28;20095;-59
2023/11/12 03:01:25;;;;;;;0.20;0.00;;;6.30;99.90;;;;;;4161770;28;20041;-56
2023/11/12 03:03:27;;;;;;;0.10;0.00;;;6.20;99.90;;;;;;4162765;28;20446;-55
2023/11/12 03:05:31;;;;;;;0.00;0.00;;;6.20;99.90;;;;;;4160829;28;20034;-61
2023/11/12 03:07:32;;;;;;;0.10;0.00;;;6.20;99.90;;;;;;4162608;28;20080;-60
2023/11/12 03:09:33;;;;;;;0.10;0.00;;;6.20;99.90;;;;;;4161536;28;20030;-57
2023/11/12 03:11:35;;;;;;;0.00;0.00;;;6.20;99.90;;;;;;4160899;28;20107;-61
2023/11/12 03:13:36;;;;;;;0.00;0.00;;;6.20;99.90;;;;;;4161751;28;20466;-58
2023/11/12 03:15:37;;;;;;;0.10;0.00;;;6.20;99.90;;;;;;4161441;28;20033;-60
2023/11/12 03:17:39;;;;;;;0.00;0.00;;;6.20;99.90;;;;;;4161929;28;20473;-58
2023/11/12 03:19:41;;;;;;;0.10;0.10;;;6.30;99.90;;;;;;4160945;28;20486;-60
2023/11/12 03:21:49;;;;;;;0.00;0.00;;;6.20;99.90;;;;;;4162139;28;20466;-61
2023/11/12 03:23:50;;;;;;;0.83;0.00;;;6.30;99.90;;;;;;4161061;28;20087;-60
2023/11/12 03:25:52;;;;;;;0.17;0.03;;;6.30;99.90;;;;;;4162365;28;20033;-60
2023/11/12 03:27:54;;;;;;;0.20;0.00;;;6.30;99.90;;;;;;4160983;28;20037;-61
2023/11/12 03:29:55;;;;;;;0.10;0.00;;;6.30;99.90;;;;;;4162751;28;20087;-60
2023/11/12 03:31:57;;;;;;;0.07;0.00;;;6.30;99.90;;;;;;4161098;28;20370;-60
2023/11/12 03:33:58;;;;;;;0.00;0.00;;;6.30;99.90;;;;;;4162119;28;20021;-61
2023/11/12 03:35:59;;;;;;;0.93;0.00;;;6.30;99.90;;;;;;4160718;28;20042;-59
2023/11/12 03:38:01;;;;;;;0.10;0.10;;;6.30;99.90;;;;;;4161392;28;20042;-57
2023/11/12 03:40:04;;;;;;;0.17;0.00;;;6.30;99.90;;;;;;4160385;28;20099;-58
2023/11/12 03:42:05;;;;;;;0.00;0.00;;;6.30;99.90;;;;;;4161938;28;20029;-62
2023/11/12 03:44:07;;;;;;;0.10;0.00;;;6.30;99.90;;;;;;4160042;28;20034;-61
2023/11/12 03:46:08;;;;;;;0.13;0.00;;;6.30;99.90;;;;;;4161676;28;20030;-60
2023/11/12 03:48:10;;;;;;;0.07;0.00;;;6.30;99.90;;;;;;4161369;28;20420;-59
2023/11/12 03:50:11;;;;;;;0.10;0.00;;;6.30;99.90;;;;;;4159921;28;20436;-61
2023/11/12 03:52:12;;;;;;;0.10;0.00;;;6.30;99.90;;;;;;4161384;28;20033;-61
2023/11/12 03:54:14;;;;;;;1.13;0.00;;;6.30;99.90;;;;;;4160394;28;20033;-61
2023/11/12 03:56:15;;;;;;;0.00;0.00;;;6.30;99.90;;;;;;4160879;28;20037;-60
2023/11/12 03:58:18;;;;;;;0.00;0.00;;;6.30;99.90;;;;;;4160455;28;20045;-61
2023/11/12 04:00:19;;;;;;;0.00;0.00;;;6.30;99.90;;;;;;4162270;28;20099;-57
2023/11/12 04:02:21;;;;;;;0.20;0.10;;;6.30;99.90;;;;;;4160464;28;20033;-58
2023/11/12 04:04:22;;;;;;;0.17;0.00;;;6.30;99.90;;;;;;4161861;28;20481;-61
2023/11/12 04:06:23;;;;;;;0.03;0.00;;;6.30;99.90;;;;;;4160466;28;20030;-60
2023/11/12 04:08:24;;;;;;;0.40;0.10;;;6.30;99.90;;;;;;4161792;28;20084;-55
2023/11/12 04:10:25;;;;;;;0.30;0.10;;;6.30;99.90;;;;;;4160462;28;20379;-59
2023/11/12 04:12:26;;;;;;;0.10;0.00;;;6.30;99.90;;;;;;4161709;28;20091;-60
2023/11/12 04:14:27;;;;;;;0.00;0.00;;;6.20;99.90;;;;;;4160612;28;21748;-61
2023/11/12 04:16:29;;;;;;;1.10;0.00;;;6.20;99.90;;;;;;4161386;28;20045;-61
2023/11/12 04:18:30;;;;;;;0.00;0.00;;;6.20;99.90;;;;;;4160587;28;20605;-61
2023/11/12 04:20:32;;;;;;;0.00;0.00;;;6.20;99.90;;;;;;4160619;28;20111;-63
2023/11/12 04:22:34;;;;;;;0.00;0.00;;;6.20;99.90;;;;;;4161089;28;20040;-61
2023/11/12 04:24:35;;;;;;;0.87;0.00;;;6.20;99.90;;;;;;4160573;28;20033;-59
2023/11/12 04:26:36;;;;;;;0.17;0.00;;;6.20;99.90;;;;;;4160581;28;20083;-56
2023/11/12 04:28:37;;;;;;;0.27;0.00;;;6.20;99.90;;;;;;4160282;28;20029;-59
2023/11/12 04:30:38;;;;;;;0.30;0.30;;;6.20;99.90;;;;;;4160332;28;20547;-60
2023/11/12 04:32:39;;;;;;;0.00;0.00;;;6.20;99.90;;;;;;4160603;28;20045;-58
2023/11/12 04:34:42;;;;;;;2.00;0.10;;;6.20;99.90;;;;;;4161503;28;20053;-59
2023/11/12 04:36:44;;;;;;;0.00;0.00;;;6.20;99.90;;;;;;4158074;28;20045;-56
2023/11/12 04:38:45;;;;;;;0.13;0.00;;;6.10;99.90;;;;;;4161561;28;20490;-59
2023/11/12 04:40:49;;;;;;;0.10;0.00;;;6.10;99.90;;;;;;4159763;28;20033;-61
2023/11/12 04:42:50;;;;;;;0.10;0.00;;;6.20;99.90;;;;;;4161517;28;20041;-57
2023/11/12 04:44:52;;;;;;;0.00;0.00;;;6.10;99.90;;;;;;4160280;28;20371;-59
2023/11/12 04:46:53;;;;;;;0.00;0.00;;;6.10;99.90;;;;;;4160435;28;20072;-61
2023/11/12 04:48:55;;;;;;;0.10;0.00;;;6.10;99.90;;;;;;4160275;28;20029;-59
2023/11/12 04:50:56;;;;;;;0.00;0.00;;;6.10;99.90;;;;;;4160965;28;20033;-60
2023/11/12 04:52:57;;;;;;;0.00;0.00;;;6.10;99.90;;;;;;4159541;28;20461;-60
2023/11/12 04:54:58;;;;;;;0.20;0.00;;;6.10;99.90;;;;;;4160391;28;20037;-61
2023/11/12 04:56:59;;;;;;;0.20;0.00;;;6.10;99.90;;;;;;4159369;28;20519;-60
2023/11/12 04:59:00;;;;;;;0.13;0.00;;;6.10;99.90;;;;;;4159791;28;20041;-56
2023/11/12 05:01:06;;;;;;;0.30;0.00;;;6.10;99.90;;;;;;4161253;28;20029;-60
2023/11/12 05:03:07;;;;;;;0.10;0.00;;;6.10;99.90;;;;;;4159562;28;20041;-60
2023/11/12 05:05:09;;;;;;;0.00;0.00;;;6.00;99.90;;;;;;4161014;28;20079;-59
2023/11/12 05:07:10;;;;;;;0.10;0.00;;;6.00;99.90;;;;;;4160003;28;20080;-61
2023/11/12 05:09:11;;;;;;;0.67;0.20;;;6.00;99.90;;;;;;4161154;28;20079;-60
2023/11/12 05:11:12;;;;;;;0.00;0.00;;;6.00;99.90;;;;;;4159958;28;20017;-60
2023/11/12 05:13:13;;;;;;;0.53;0.00;;;6.00;99.90;;;;;;4161183;28;20466;-61
2023/11/12 05:15:15;;;;;;;0.10;0.00;;;6.00;99.90;;;;;;4159862;28;20064;-59
2023/11/12 05:17:16;;;;;;;0.13;0.13;;;6.00;99.90;;;;;;4160927;28;20429;-61
2023/11/12 05:19:17;;;;;;;0.63;0.13;;;6.00;99.90;;;;;;4159879;28;20168;-58
2023/11/12 05:21:18;;;;;;;0.10;0.00;;;6.00;99.90;;;;;;4160424;28;20128;-60
2023/11/12 05:23:19;;;;;;;0.27;0.10;;;6.00;99.90;;;;;;4160357;28;20029;-59
2023/11/12 05:25:20;;;;;;;0.10;0.00;;;6.00;99.90;;;;;;4159985;28;20067;-56
2023/11/12 05:27:21;;;;;;;1.80;0.10;;;6.00;99.90;;;;;;4160772;28;20034;-60
2023/11/12 05:29:23;;;;;;;0.20;0.10;;;6.00;99.90;;;;;;4159781;28;20103;-60
2023/11/12 05:31:25;;;;;;;0.90;0.03;;;6.00;99.90;;;;;;4160744;28;20046;-59
2023/11/12 05:33:26;;;;;;;0.17;0.13;;;6.00;99.90;;;;;;4158745;28;20034;-58
2023/11/12 05:35:28;;;;;;;0.10;0.00;;;6.00;99.90;;;;;;4160564;28;20428;-60
2023/11/12 05:37:29;;;;;;;0.20;0.00;;;6.00;99.90;;;;;;4158989;28;20176;-60
2023/11/12 05:39:31;;;;;;;0.10;0.00;;;6.00;99.90;;;;;;4160661;28;20041;-57
2023/11/12 05:41:32;;;;;;;0.00;0.00;;;6.00;99.90;;;;;;4161237;28;20037;-61
2023/11/12 05:43:33;;;;;;;0.10;0.10;;;6.00;99.90;;;;;;4163146;28;20037;-60
2023/11/12 05:45:34;;;;;;;0.47;0.00;;;6.00;99.90;;;;;;4162445;28;20022;-57
2023/11/12 05:47:35;;;;;;;0.00;0.00;;;6.00;99.90;;;;;;4162953;28;20389;-59
2023/11/12 05:49:37;;;;;;;0.30;0.20;;;6.00;99.90;;;;;;4161765;28;20490;-61
2023/11/12 05:51:38;;;;;;;0.37;0.03;;;6.00;99.90;;;;;;4163136;28;20087;-62
2023/11/12 05:53:39;;;;;;;0.00;0.00;;;6.00;99.90;;;;;;4161646;28;20080;-61
2023/11/12 05:55:40;;;;;;;0.10;0.00;;;6.00;99.90;;;;;;4162482;28;20041;-61
2023/11/12 05:57:41;;;;;;;0.40;0.10;;;6.00;99.90;;;;;;4162443;28;20087;-60
2023/11/12 05:59:42;;;;;;;0.20;0.10;;;6.10;99.90;;;;;;4162123;28;20045;-60
2023/11/12 06:01:43;;;;;;;0.10;0.00;;;6.10;99.90;;;;;;4162514;28;20041;-61
2023/11/12 06:03:45;;;;;;;0.47;0.00;;;6.00;99.90;;;;;;4162524;28;20567;-60
2023/11/12 06:05:46;;;;;;;1.23;0.10;;;6.00;99.90;;;;;;4162353;28;20037;-60
2023/11/12 06:07:47;;;;;;;0.10;0.00;;;6.00;99.90;;;;;;4162470;28;20037;-59
2023/11/12 06:09:48;;;;;;;0.10;0.00;;;6.00;99.90;;;;;;4163296;28;20125;-61
2023/11/12 06:11:49;;;;;;;0.13;0.00;;;6.00;99.90;;;;;;4162167;28;20091;-60
2023/11/12 06:13:50;;;;;;;0.20;0.00;;;6.00;99.90;;;;;;4163220;28;20454;-60
2023/11/12 06:15:51;;;;;;;0.07;0.00;;;6.00;99.90;;;;;;4161967;28;20045;-62
2023/11/12 06:17:53;;;;;;;0.00;0.00;;;6.00;99.90;;;;;;4162974;28;20494;-61
2023/11/12 06:19:54;;;;;;;0.33;0.00;;;6.00;99.90;;;;;;4162137;28;20095;-61
2023/11/12 06:21:57;;;;;;;0.10;0.00;;;6.00;99.90;;;;;;4162759;28;20444;-59
2023/11/12 06:23:58;;;;;;;0.03;0.03;;;6.00;99.90;;;;;;4162151;28;20033;-60
2023/11/12 06:25:59;;;;;;;0.33;0.00;;;5.90;99.90;;;;;;4162378;28;20132;-61
2023/11/12 06:28:01;;;;;;;1.23;0.10;;;5.90;99.90;;;;;;4162308;28;20429;-61
2023/11/12 06:30:02;;;;;;;0.20;0.10;;;5.90;99.90;;;;;;4161574;28;20429;-62
2023/11/12 06:32:05;;;;;;;0.20;0.03;;;5.90;99.90;;;;;;4162166;28;20095;-60
2023/11/12 06:34:06;;;;;;;3.13;0.63;;;5.80;99.90;;;;;;4161159;28;20041;-60
2023/11/12 06:36:09;;;;;;;0.23;0.00;;;5.90;99.90;;;;;;4156918;28;20516;-60
2023/11/12 06:38:11;;;;;;;0.27;0.00;;;5.80;99.90;;;;;;4160834;28;20108;-59
2023/11/12 06:40:12;;;;;;;0.07;0.00;;;5.80;99.90;;;;;;4163377;28;20075;-59
2023/11/12 06:42:13;;;;;;;0.00;0.00;;;5.80;99.90;;;;;;4160200;28;20025;-59
2023/11/12 06:44:14;;;;;;;0.10;0.00;;;5.80;99.90;;;;;;4160965;28;20045;-59
2023/11/12 06:46:15;;;;;;;0.00;0.00;;;5.80;99.90;;;;;;4161611;28;20022;-59
2023/11/12 06:48:18;;;;;;;0.20;0.07;;;5.70;99.90;;;;;;4161556;28;20033;-60
2023/11/12 06:50:19;;;;;;;0.00;0.00;;;5.70;99.90;;;;;;4161405;28;20064;-59
2023/11/12 06:52:21;;;;;;;0.27;0.00;;;5.80;99.90;;;;;;4161614;28;20022;-57
2023/11/12 06:54:22;;;;;;;0.10;0.00;;;5.70;99.90;;;;;;4161534;28;20363;-57
2023/11/12 06:56:24;;;;;;;1.60;0.20;;;5.80;99.90;;;;;;4161891;28;20635;-60
2023/11/12 06:58:25;;;;;;;2.57;0.27;;;5.80;99.90;;;;;;4160767;28;20076;-59
2023/11/12 07:00:27;;;;;;;1.33;0.20;;;5.80;99.90;;;;;;4161533;28;20033;-63
2023/11/12 07:02:28;;;;;;;0.10;0.10;;;5.90;99.90;;;;;;4161806;28;20029;-62
2023/11/12 07:04:30;;;;;;;0.20;0.10;;;5.90;99.90;;;;;;4159721;28;20034;-60
2023/11/12 07:06:31;;;;;;;1.60;0.70;;;5.90;99.90;;;;;;4161565;28;20437;-60
2023/11/12 07:08:32;;;;;;;1.50;0.83;;;6.00;99.90;;;;;;4160853;28;20095;-60
2023/11/12 07:10:34;;;;;;;1.77;0.63;;;6.00;99.90;;;;;;4162281;28;20359;-60
2023/11/12 07:12:35;;;;;;;2.77;1.00;;;6.00;99.90;;;;;;4161094;28;20111;-59
2023/11/12 07:14:36;;;;;;;4.77;1.63;;;6.10;99.90;;;;;;4162175;28;20103;-59
2023/11/12 07:16:38;;;;;;;8.53;2.90;;;6.10;99.90;;;;;;4160905;28;20102;-58
2023/11/12 07:18:40;;;;;;;5.67;2.03;;;6.10;99.90;;;;;;4162286;28;20037;-62
2023/11/12 07:20:41;;;;;;;0.90;0.60;;;6.20;99.90;;;;;;4160931;28;20049;-61
2023/11/12 07:22:44;;;;;;;0.63;0.50;;;6.20;99.90;;;;;;4161531;28;20092;-60
2023/11/12 07:24:45;;;;;;;1.17;0.40;;;6.20;99.90;;;;;;4160730;28;20018;-58
2023/11/12 07:26:47;;;;;;;0.60;0.30;;;6.20;99.90;;;;;;4145492;28;20026;-60
2023/11/12 07:28:48;;;;;;;0.97;0.60;;;6.20;99.90;;;;;;4160728;28;20528;-63
2023/11/12 07:30:49;;;;;;;0.20;0.10;;;6.20;99.90;;;;;;4159972;28;20144;-60
2023/11/12 07:32:50;;;;;;;1.23;0.20;;;6.20;99.90;;;;;;4160826;28;20437;-62
2023/11/12 07:34:51;;;;;;;0.77;0.30;;;6.20;99.90;;;;;;4159625;28;20091;-61
2023/11/12 07:36:52;;;;;;;1.43;0.70;;;6.20;99.90;;;;;;4161062;28;20148;-60
2023/11/12 07:38:53;;;;;;;0.90;0.10;;;6.20;99.90;;;;;;4160335;28;20040;-59
2023/11/12 07:40:54;;;;;;;0.50;0.30;;;6.20;99.90;;;;;;4160878;28;20194;-60
2023/11/12 07:42:56;;;;;;;0.73;0.17;;;6.30;99.90;;;;;;4160354;28;20037;-59
2023/11/12 07:44:57;;;;;;;0.70;0.23;;;6.30;99.90;;;;;;4161283;28;20049;-61
2023/11/12 07:46:58;;;;;;;0.40;0.40;;;6.30;99.90;;;;;;4160406;28;20083;-62
2023/11/12 07:48:59;;;;;;;0.30;0.30;;;6.30;99.90;;;;;;4161588;28;20033;-60
2023/11/12 07:51:01;;;;;;;0.50;0.30;;;6.40;99.90;;;;;;4160392;28;20060;-60
2023/11/12 07:53:03;;;;;;;0.40;0.20;;;6.40;99.90;;;;;;4161453;28;20038;-60
2023/11/12 07:55:05;;;;;;;0.10;0.00;;;6.40;99.90;;;;;;4160544;28;20158;-58
2023/11/12 07:57:06;;;;;;;0.50;0.10;;;6.50;99.90;;;;;;4160104;28;20104;-61
2023/11/12 07:59:08;;;;;;;1.83;0.10;;;6.60;99.90;;;;;;4160656;28;20462;-62
2023/11/12 08:01:12;;;;;;;0.50;0.27;;;6.60;99.90;;;;;;4160615;28;20041;-59
2023/11/12 08:03:13;;;;;;;0.67;0.07;;;6.70;99.90;;;;;;4161080;28;20123;-63
2023/11/12 08:05:15;;;;;;;0.43;0.20;;;6.80;99.90;;;;;;4159600;28;20029;-61
2023/11/12 08:07:16;;;;;;;0.73;0.20;;;6.80;99.90;;;;;;4161438;28;20099;-63
2023/11/12 08:09:17;;;;;;;0.23;0.10;;;6.80;99.90;;;;;;4160294;28;20076;-62
2023/11/12 08:11:18;;;;;;;0.10;0.10;;;6.90;99.90;;;;;;4161182;28;20021;-62
2023/11/12 08:13:20;;;;;;;0.10;0.10;;;6.90;99.90;;;;;;4160358;28;20025;-61
2023/11/12 08:15:22;;;;;;;0.90;0.00;;;6.90;99.90;;;;;;4161575;28;20142;-60
2023/11/12 08:17:23;;;;;;;0.73;0.10;;;7.00;99.90;;;;;;4160376;28;20052;-61
2023/11/12 08:19:24;;;;;;;0.10;0.10;;;7.10;99.90;;;;;;4160893;28;20037;-61
2023/11/12 08:21:25;;;;;;;0.50;0.10;;;7.10;99.90;;;;;;4160151;28;20029;-60
2023/11/12 08:23:26;;;;;;;0.60;0.20;;;7.10;99.90;;;;;;4161189;28;20045;-61
2023/11/12 08:25:28;;;;;;;0.40;0.10;;;7.20;99.90;;;;;;4160067;28;20099;-61
2023/11/12 08:27:30;;;;;;;0.33;0.17;;;7.20;99.90;;;;;;4160884;28;20026;-62
2023/11/12 08:29:31;;;;;;;0.40;0.20;;;7.20;99.90;;;;;;4160642;28;20021;-63
2023/11/12 08:31:36;;;;;;;0.27;0.27;;;7.20;99.90;;;;;;4160602;28;20121;-65
2023/11/12 08:33:37;;;;;;;0.20;0.10;;;7.20;99.90;;;;;;4160504;28;20091;-62
2023/11/12 08:35:39;;;;;;;0.27;0.10;;;7.30;99.90;;;;;;4159925;28;20033;-62
2023/11/12 08:37:40;;;;;;;0.70;0.50;;;7.30;99.90;;;;;;4160701;28;20041;-62
2023/11/12 08:39:42;;;;;;;0.10;0.10;;;7.20;99.90;;;;;;4159728;28;21024;-63
2023/11/12 08:41:47;;;;;;;0.33;0.10;;;7.10;99.90;;;;;;4160847;28;20037;-61
2023/11/12 08:43:48;;;;;;;0.60;0.00;;;7.10;99.90;;;;;;4160011;28;20046;-62
2023/11/12 08:45:49;;;;;;;0.30;0.10;;;7.10;99.90;;;;;;4160979;28;20038;-62
2023/11/12 08:47:51;;;;;;;0.20;0.20;;;7.10;99.90;;;;;;4159584;28;20033;-61
2023/11/12 08:49:52;;;;;;;0.37;0.10;;;7.10;99.90;;;;;;4160804;28;20041;-64
2023/11/12 08:51:53;;;;;;;0.30;0.17;;;7.10;99.90;;;;;;4159950;28;20160;-61
2023/11/12 08:53:55;;;;;;;0.57;0.13;;;7.10;99.90;;;;;;4161183;28;20324;-62
2023/11/12 08:55:56;;;;;;;0.40;0.10;;;7.10;99.90;;;;;;4159385;28;20564;-60
2023/11/12 08:57:57;;;;;;;0.57;0.20;;;7.10;99.90;;;;;;4160711;28;20160;-60
2023/11/12 08:59:58;;;;;;;0.20;0.10;;;7.10;99.90;;;;;;4160099;28;20049;-61
2023/11/12 09:01:59;;;;;;;0.20;0.00;;;7.20;99.90;;;;;;4160550;28;20030;-64
2023/11/12 09:04:00;;;;;;;0.00;0.00;;;7.10;99.90;;;;;;4160075;28;20459;-62
2023/11/12 09:06:02;;;;;;;0.23;0.03;;;7.20;99.90;;;;;;4158828;28;20047;-62
2023/11/12 09:08:03;;;;;;;0.20;0.10;;;7.20;99.90;;;;;;4160404;28;20367;-61
2023/11/12 09:10:05;;;;;;;0.27;0.10;;;7.10;99.90;;;;;;4159537;28;20508;-61
2023/11/12 09:12:07;;;;;;;0.60;0.30;;;7.10;99.90;;;;;;4160820;28;20042;-62
2023/11/12 09:14:11;;;;;;;0.60;0.40;;;7.10;99.90;;;;;;4159743;28;20478;-60
2023/11/12 09:16:13;;;;;;;0.60;0.40;;;7.20;99.90;;;;;;4161870;28;20133;-62
2023/11/12 09:18:14;;;;;;;0.43;0.30;;;7.20;99.90;;;;;;4163079;28;20042;-63
2023/11/12 09:20:16;;;;;;;1.63;0.50;;;7.20;99.90;;;;;;4163670;28;20045;-63
2023/11/12 09:22:17;;;;;;;0.57;0.30;;;7.10;99.90;;;;;;4162751;28;20029;-62
2023/11/12 09:24:18;;;;;;;0.30;0.10;;;7.10;99.90;;;;;;4163874;28;20437;-66
2023/11/12 09:26:21;;;;;;;1.63;1.00;;;7.10;99.90;;;;;;4162982;28;20033;-63
2023/11/12 09:28:22;;;;;;;1.73;1.00;;;7.10;99.90;;;;;;4163773;28;20091;-62
2023/11/12 09:30:23;;;;;;;0.63;0.40;;;7.10;99.90;;;;;;4163388;28;20037;-61
2023/11/12 09:32:24;;;;;;;0.30;0.10;;;7.10;99.90;;;;;;4163365;28;20091;-62
2023/11/12 09:34:26;;;;;;;0.87;0.60;;;7.10;99.90;;;;;;4163060;28;20079;-62
2023/11/12 09:36:28;;;;;;;0.30;0.20;;;7.20;99.90;;;;;;4162987;28;20071;-63
2023/11/12 09:38:29;;;;;;;0.83;0.50;;;7.20;99.90;;;;;;4163074;28;20056;-61
2023/11/12 09:40:31;;;;;;;0.73;0.30;;;7.20;99.90;;;;;;4162590;28;20037;-63
2023/11/12 09:42:32;;;;;;;0.70;0.30;;;7.20;99.90;;;;;;4163435;28;20083;-64
2023/11/12 09:44:39;;;;;;;0.73;0.40;;;7.20;99.90;;;;;;4162654;28;20041;-60
2023/11/12 09:46:40;;;;;;;0.87;0.20;;;7.20;99.90;;;;;;4163651;28;20041;-64
2023/11/12 09:48:42;;;;;;;1.30;0.30;;;7.20;99.90;;;;;;4162102;28;20108;-62
2023/11/12 09:50:44;;;;;;;0.77;0.20;;;7.20;99.90;;;;;;4163625;28;20042;-62
2023/11/12 09:52:46;;;;;;;0.60;0.40;;;7.20;99.90;;;;;;4162528;28;20088;-62
2023/11/12 09:54:49;;;;;;;1.30;0.90;;;7.30;99.90;;;;;;4163343;28;20029;-61
2023/11/12 09:56:50;;;;;;;2.03;0.73;;;7.40;99.90;;;;;;4162198;28;20038;-59
2023/11/12 09:58:53;;;;;;;0.93;0.30;;;7.40;99.90;;;;;;4163452;28;20029;-60
2023/11/12 10:00:58;;;;;;;0.57;0.40;;;7.50;99.90;;;;;;4162761;28;20571;-61
2023/11/12 10:03:02;;;;;;;0.40;0.20;;;7.50;99.90;;;;;;4163559;28;20063;-61
2023/11/12 10:05:10;;;;;;;0.10;0.10;;;7.60;99.90;;;;;;4162130;28;20103;-61
2023/11/12 10:07:11;;;;;;;2.30;0.50;;;7.60;99.90;;;;;;4163422;28;20466;-61
2023/11/12 10:09:15;;;;;;;0.50;0.30;;;7.60;99.90;;;;;;4162110;28;20021;-62
2023/11/12 10:11:23;;;;;;;0.60;0.40;;;7.60;99.90;;;;;;4163063;28;20458;-61
2023/11/12 10:13:36;;;;;;;0.93;0.40;;;7.70;99.90;;;;;;4160883;28;20494;-61
2023/11/12 10:15:37;;;;;;;1.40;0.30;;;7.80;99.90;;;;;;4162922;28;20076;-63
2023/11/12 10:17:45;;;;;;;1.60;0.33;;;7.80;99.90;;;;;;4162702;28;20075;-61
2023/11/12 10:19:56;;;;;;;2.03;0.60;;;7.80;99.90;;;;;;4162614;28;20067;-62
2023/11/12 10:21:58;;;;;;;6.55;2.78;;;7.80;99.90;;;;;;4162118;28;20454;-61
2023/11/12 10:24:04;;;;;;;4.40;2.60;;;7.80;99.90;;;;;;4162156;28;20037;-62
2023/11/12 10:26:13;;;;;;;1.07;0.97;;;7.90;99.90;;;;;;4162276;28;20573;-61
2023/11/12 10:28:15;;;;;;;1.63;1.13;;;7.90;99.90;;;;;;4160980;28;20048;-61
2023/11/12 10:30:20;;;;;;;4.67;2.90;;;7.90;99.90;;;;;;4162612;28;20025;-63
2023/11/12 10:32:27;;;;;;;2.47;2.00;;;7.90;99.90;;;;;;4161876;28;20489;-61
2023/11/12 10:34:29;;;;;;;1.30;0.70;;;8.00;99.90;;;;;;4162592;28;20099;-62
2023/11/12 10:36:30;;;;;;;1.70;1.50;;;8.00;99.90;;;;;;4161433;28;20543;-61
2023/11/12 10:38:46;;;;;;;5.97;4.03;;;8.00;99.90;;;;;;4162716;28;20663;-62
2023/11/12 10:41:05;;;;;;;8.87;5.17;;;8.10;99.90;;;;;;4161393;28;20091;-61
2023/11/12 10:43:10;;;;;;;4.03;3.20;;;8.10;99.90;;;;;;4162122;28;20509;-61